Time;durP1;ratioP1;P1;durP2;ratioP2;P2;SDS_P1;SDS_P2;PMS_P1;PMS_P2;Temp;Humidity;BMP_temperature;BMP_pressure;BME280_temperature;BME280_humidity;BME280_pressure;Samples;Min_cycle;Max_cycle;Signal;HPM_P1;HPM_P2
2023/11/21 00:01:54;;;;;;;41.15;28.75;;;;;;;6.52;66.89;94430.84;4196196;28;20051;-69
2023/11/21 00:03:56;;;;;;;41.45;26.30;;;;;;;6.55;67.41;94434.94;4199227;28;20136;-69
2023/11/21 00:05:58;;;;;;;39.90;26.52;;;;;;;6.55;67.50;94440.16;4179710;28;20052;-70
2023/11/21 00:08:00;;;;;;;40.75;26.67;;;;;;;6.50;67.29;94435.38;4195098;28;20159;-67
2023/11/21 00:10:02;;;;;;;41.10;28.98;;;;;;;6.43;67.30;94429.09;4196497;28;20836;-70
2023/11/21 00:12:04;;;;;;;41.33;27.70;;;;;;;6.35;67.85;94428.97;4195428;28;20497;-70
2023/11/21 00:14:06;;;;;;;37.65;26.08;;;;;;;6.34;67.53;94435.94;4189694;28;20081;-69
2023/11/21 00:16:08;;;;;;;41.03;26.15;;;;;;;6.30;67.89;94436.34;4179204;28;20049;-68
2023/11/21 00:18:10;;;;;;;41.80;27.60;;;;;;;6.31;67.97;94436.22;4188756;28;20040;-70
2023/11/21 00:20:13;;;;;;;46.10;28.90;;;;;;;6.42;67.89;94439.66;4192297;28;20135;-69
2023/11/21 00:22:15;;;;;;;47.08;30.23;;;;;;;6.52;67.50;94440.44;4196788;28;20059;-70
2023/11/21 00:24:17;;;;;;;45.90;29.75;;;;;;;6.59;67.07;94432.91;4175991;28;20048;-67
2023/11/21 00:26:19;;;;;;;40.95;28.42;;;;;;;6.65;67.33;94433.16;4193890;28;20084;-70
2023/11/21 00:28:22;;;;;;;42.33;27.33;;;;;;;6.76;67.18;94427.75;4178872;28;20103;-69
2023/11/21 00:30:24;;;;;;;41.33;28.30;;;;;;;6.78;67.02;94427.63;4196605;28;20044;-67
2023/11/21 00:32:26;;;;;;;44.15;29.30;;;;;;;6.79;66.21;94429.25;4166707;28;20071;-67
2023/11/21 00:34:29;;;;;;;46.05;29.40;;;;;;;6.81;66.32;94422.13;4185041;28;20056;-70
2023/11/21 00:36:34;;;;;;;40.60;28.02;;;;;;;6.81;65.81;94427.34;4196229;28;20094;-68
2023/11/21 00:38:37;;;;;;;40.50;26.90;;;;;;;6.84;65.56;94421.84;4193493;28;20126;-69
2023/11/21 00:40:39;;;;;;;;;;;;;;;6.86;65.44;94429.50;4196581;28;20131;-68
2023/11/21 00:42:41;;;;;;;39.80;24.92;;;;;;;6.79;65.51;94424.06;4194072;28;19928;-69
2023/11/21 00:44:43;;;;;;;38.83;24.42;;;;;;;6.69;65.88;94423.25;4197116;28;20177;-68
2023/11/21 00:46:45;;;;;;;34.38;24.13;;;;;;;6.61;66.53;94428.38;4196277;28;20482;-69
2023/11/21 00:48:47;;;;;;;35.78;23.20;;;;;;;6.63;66.25;94429.06;4190890;28;20411;-69
2023/11/21 00:50:50;;;;;;;36.72;24.20;;;;;;;6.66;65.70;94436.56;4183328;28;20059;-69
2023/11/21 00:52:51;;;;;;;33.45;23.02;;;;;;;6.70;66.02;94435.31;4192903;28;20037;-68
2023/11/21 00:54:53;;;;;;;36.13;24.13;;;;;;;6.68;66.15;94427.66;4190820;28;20490;-67
2023/11/21 00:56:55;;;;;;;33.75;22.92;;;;;;;6.56;66.18;94424.41;4194339;28;20052;-68
2023/11/21 00:58:57;;;;;;;35.30;22.90;;;;;;;6.50;66.62;94419.75;4185715;28;20132;-68
2023/11/21 01:00:58;;;;;;;36.58;23.27;;;;;;;6.43;66.29;94418.69;4189743;28;20143;-69
2023/11/21 01:03:00;;;;;;;37.80;24.98;;;;;;;6.18;67.11;94408.88;4193976;28;20041;-70
2023/11/21 01:05:03;;;;;;;36.60;23.85;;;;;;;6.18;67.71;94416.69;4188966;28;20499;-68
2023/11/21 01:07:05;;;;;;;37.30;26.10;;;;;;;6.14;67.28;94416.94;4188418;28;20049;-68
2023/11/21 01:09:10;;;;;;;37.72;26.55;;;;;;;6.14;67.43;94411.75;4190865;28;20131;-69
2023/11/21 01:11:12;;;;;;;40.60;27.30;;;;;;;5.90;68.07;94412.16;4191508;28;20152;-72
2023/11/21 01:13:15;;;;;;;36.45;24.85;;;;;;;5.78;69.18;94408.03;4193424;28;20090;-68
2023/11/21 01:15:17;;;;;;;40.95;25.90;;;;;;;5.65;69.59;94408.31;4192170;28;20056;-68
2023/11/21 01:17:18;;;;;;;41.42;27.60;;;;;;;5.49;70.02;94408.84;4196366;28;20060;-70
2023/11/21 01:19:20;;;;;;;37.90;25.85;;;;;;;5.57;70.14;94407.34;4194698;28;20064;-69
2023/11/21 01:21:22;;;;;;;36.88;26.13;;;;;;;5.74;70.13;94417.91;4184014;28;20048;-69
2023/11/21 01:23:24;;;;;;;38.47;26.65;;;;;;;5.87;69.13;94422.84;4190237;28;20067;-68
2023/11/21 01:25:26;;;;;;;37.05;27.23;;;;;;;5.90;69.08;94422.56;4196118;28;20048;-69
2023/11/21 01:27:28;;;;;;;40.30;28.25;;;;;;;5.92;69.02;94417.22;4185609;28;20052;-68
2023/11/21 01:29:30;;;;;;;43.75;28.35;;;;;;;5.98;68.38;94415.84;4195714;28;20047;-69
2023/11/21 01:31:32;;;;;;;41.70;28.95;;;;;;;6.05;68.42;94409.97;4161595;28;20092;-69
2023/11/21 01:33:33;;;;;;;45.25;29.40;;;;;;;6.16;68.39;94406.41;4192483;28;20049;-67
2023/11/21 01:35:35;;;;;;;41.97;26.77;;;;;;;6.24;68.11;94408.28;4196127;28;20059;-68
2023/11/21 01:37:38;;;;;;;42.50;27.73;;;;;;;6.27;67.90;94414.06;4189353;28;20044;-68
2023/11/21 01:39:40;;;;;;;38.30;26.90;;;;;;;6.31;67.79;94412.00;4189215;28;20052;-68
2023/11/21 01:41:44;;;;;;;41.15;26.70;;;;;;;6.36;67.76;94415.00;4192027;28;20052;-68
2023/11/21 01:43:46;;;;;;;43.33;27.73;;;;;;;6.30;67.06;94418.16;4185568;28;20090;-70
2023/11/21 01:45:48;;;;;;;38.17;26.75;;;;;;;6.25;67.86;94415.16;4192821;28;20083;-69
2023/11/21 01:47:50;;;;;;;36.83;25.95;;;;;;;6.24;67.74;94409.16;4189574;28;20048;-68
2023/11/21 01:49:53;;;;;;;35.10;25.40;;;;;;;6.22;67.66;94400.66;4190363;28;20131;-67
2023/11/21 01:51:55;;;;;;;38.67;25.85;;;;;;;6.22;67.95;94399.84;4195011;28;20048;-69
2023/11/21 01:53:56;;;;;;;38.08;25.20;;;;;;;6.27;67.90;94400.22;4182918;28;20048;-69
2023/11/21 01:55:59;;;;;;;39.08;27.13;;;;;;;6.28;67.67;94402.69;4183583;28;20118;-68
2023/11/21 01:58:01;;;;;;;37.70;26.92;;;;;;;6.28;67.43;94409.66;4195317;28;20461;-67
2023/11/21 02:00:15;;;;;;;41.33;27.63;;;;;;;6.28;67.49;94413.09;4192891;28;20830;-67
2023/11/21 02:02:17;;;;;;;37.65;26.23;;;;;;;6.29;67.44;94408.72;4190722;28;20410;-70
2023/11/21 02:04:19;;;;;;;42.58;28.13;;;;;;;6.31;67.36;94407.63;4184942;28;20192;-69
2023/11/21 02:06:22;;;;;;;39.20;27.65;;;;;;;6.31;67.44;94404.19;4145768;28;20085;-69
2023/11/21 02:08:24;;;;;;;39.63;27.02;;;;;;;6.32;67.69;94405.81;4176540;28;20045;-70
2023/11/21 02:10:25;;;;;;;39.47;26.38;;;;;;;6.27;67.46;94401.03;4193994;28;20064;-69
2023/11/21 02:12:27;;;;;;;34.95;25.23;;;;;;;6.24;67.43;94410.91;4168398;28;20079;-69
2023/11/21 02:14:30;;;;;;;37.25;27.45;;;;;;;6.11;67.44;94404.22;4194688;28;20091;-68
2023/11/21 02:16:33;;;;;;;38.05;27.10;;;;;;;5.87;67.78;94404.63;4173379;28;20128;-68
2023/11/21 02:18:36;;;;;;;38.20;25.25;;;;;;;5.85;69.05;94400.50;4173664;28;20048;-68
2023/11/21 02:20:41;;;;;;;39.70;26.17;;;;;;;5.88;69.23;94403.66;4172141;28;20071;-68
2023/11/21 02:22:57;;;;;;;34.63;25.23;;;;;;;5.87;69.12;94412.44;4194607;28;20045;-71
2023/11/21 02:25:00;;;;;;;36.75;25.75;;;;;;;5.87;69.00;94398.59;4192805;28;20110;-69
2023/11/21 02:27:02;;;;;;;39.58;27.15;;;;;;;5.90;68.45;94403.53;4184707;28;20052;-69
2023/11/21 02:29:04;;;;;;;41.03;26.10;;;;;;;5.92;68.74;94399.03;4195359;28;20058;-68
2023/11/21 02:31:07;;;;;;;41.42;26.40;;;;;;;5.96;68.79;94395.22;4177030;28;20145;-69
2023/11/21 02:33:09;;;;;;;41.83;27.60;;;;;;;5.99;68.46;94396.72;4195418;28;20072;-69
2023/11/21 02:35:12;;;;;;;43.50;26.65;;;;;;;5.99;68.31;94402.72;4185383;28;20282;-68
2023/11/21 02:37:13;;;;;;;35.67;25.60;;;;;;;6.05;68.80;94398.78;4184522;28;20053;-69
2023/11/21 02:39:16;;;;;;;38.13;25.42;;;;;;;6.08;68.59;94399.28;4170152;28;20097;-67
2023/11/21 02:41:18;;;;;;;38.33;26.25;;;;;;;6.11;68.06;94401.63;4166094;28;20491;-69
2023/11/21 02:43:19;;;;;;;38.38;25.48;;;;;;;6.09;68.01;94397.53;4191714;28;20087;-66
2023/11/21 02:45:21;;;;;;;33.67;24.70;;;;;;;6.09;68.54;94400.94;4170673;28;20063;-69
2023/11/21 02:47:24;;;;;;;34.88;24.38;;;;;;;6.08;68.08;94394.09;4184989;28;20533;-68
2023/11/21 02:49:28;;;;;;;37.83;25.42;;;;;;;6.09;68.11;94400.94;4194762;28;20059;-68
2023/11/21 02:51:30;;;;;;;38.72;25.10;;;;;;;6.13;68.39;94396.28;4195089;28;20075;-66
2023/11/21 02:53:32;;;;;;;39.33;25.40;;;;;;;6.12;68.26;94395.47;4194704;28;20045;-67
2023/11/21 02:55:36;;;;;;;35.45;24.40;;;;;;;6.12;67.89;94394.63;4195459;28;20071;-67
2023/11/21 02:57:38;;;;;;;35.58;24.20;;;;;;;6.11;67.64;94393.84;4176408;28;20185;-69
2023/11/21 02:59:40;;;;;;;35.95;24.83;;;;;;;6.08;67.82;94394.09;4195047;28;20044;-70
2023/11/21 03:01:42;;;;;;;40.78;25.92;;;;;;;6.09;68.01;94400.13;4193325;28;20135;-67
2023/11/21 03:03:44;;;;;;;37.72;25.58;;;;;;;6.07;67.93;94392.47;4199962;28;20132;-67
2023/11/21 03:05:46;;;;;;;38.45;25.40;;;;;;;6.07;67.84;94389.06;4194917;28;20049;-68
2023/11/21 03:07:47;;;;;;;35.28;24.27;;;;;;;6.03;68.21;94391.09;4185631;28;20055;-69
2023/11/21 03:09:49;;;;;;;37.97;24.08;;;;;;;5.99;68.14;94389.72;4194133;28;20114;-69
2023/11/21 03:11:51;;;;;;;39.15;25.13;;;;;;;5.95;68.29;94390.97;4191376;28;20080;-69
2023/11/21 03:13:53;;;;;;;34.03;24.27;;;;;;;5.85;68.08;94395.31;4184627;28;20080;-68
2023/11/21 03:15:55;;;;;;;39.25;26.80;;;;;;;5.83;68.69;94384.22;4183437;28;20056;-69
2023/11/21 03:17:57;;;;;;;39.70;26.08;;;;;;;5.66;68.56;94389.19;4173243;28;20563;-68
2023/11/21 03:20:00;;;;;;;40.83;27.05;;;;;;;5.49;69.37;94400.25;4180403;28;20102;-67
2023/11/21 03:22:01;;;;;;;41.90;28.10;;;;;;;5.43;69.53;94404.19;4191768;28;20049;-68
2023/11/21 03:24:04;;;;;;;41.15;28.00;;;;;;;5.20;70.19;94407.97;4177238;28;20041;-68
2023/11/21 03:26:08;;;;;;;42.50;29.27;;;;;;;5.21;70.80;94415.66;4196257;28;20121;-69
2023/11/21 03:28:10;;;;;;;40.03;27.02;;;;;;;5.37;71.51;94415.13;4180020;28;20064;-68
2023/11/21 03:30:12;;;;;;;41.08;27.17;;;;;;;5.46;70.42;94409.13;4198106;28;20063;-67
2023/11/21 03:32:13;;;;;;;40.90;27.35;;;;;;;5.49;70.34;94414.06;4186950;28;20040;-68
2023/11/21 03:34:26;;;;;;;37.63;26.27;;;;;;;5.50;70.33;94409.66;4192576;28;20453;-68
2023/11/21 03:36:28;;;;;;;39.75;24.92;;;;;;;5.53;69.99;94404.22;4194317;28;20075;-68
2023/11/21 03:38:30;;;;;;;41.58;27.38;;;;;;;5.59;70.10;94411.44;4186053;28;20056;-69
2023/11/21 03:40:32;;;;;;;44.38;28.23;;;;;;;5.65;69.33;94402.28;4170715;28;20132;-70
2023/11/21 03:42:34;;;;;;;38.97;26.33;;;;;;;5.66;69.79;94396.97;4180628;28;20049;-68
2023/11/21 03:44:36;;;;;;;39.65;25.17;;;;;;;5.66;69.40;94394.38;4182435;28;20060;-69
2023/11/21 03:46:38;;;;;;;42.00;26.15;;;;;;;5.67;69.67;94385.59;4185837;28;20102;-68
2023/11/21 03:48:40;;;;;;;41.85;27.23;;;;;;;5.74;69.44;94385.88;4195396;28;20056;-68
2023/11/21 03:50:41;;;;;;;42.67;27.35;;;;;;;5.80;69.50;94379.31;4180164;28;20214;-70
2023/11/21 03:52:44;;;;;;;46.17;26.85;;;;;;;5.83;69.53;94379.03;4195800;28;20080;-68
2023/11/21 03:54:46;;;;;;;38.78;24.50;;;;;;;5.85;69.27;94375.34;4189774;28;20517;-70
2023/11/21 03:56:47;;;;;;;37.67;24.10;;;;;;;5.87;68.94;94375.19;4171738;28;20828;-69
2023/11/21 03:58:49;;;;;;;40.85;24.52;;;;;;;5.92;69.06;94375.63;4174922;28;20128;-68
2023/11/21 04:00:51;;;;;;;41.72;25.42;;;;;;;5.88;68.40;94374.25;4173537;28;20435;-68
2023/11/21 04:02:53;;;;;;;45.35;27.35;;;;;;;5.91;68.45;94377.38;4184470;28;20044;-69
2023/11/21 04:04:56;;;;;;;42.38;27.95;;;;;;;5.89;67.69;94373.28;4197057;28;20056;-69
2023/11/21 04:06:58;;;;;;;37.20;26.40;;;;;;;5.80;68.27;94369.72;4196524;28;20486;-69
2023/11/21 04:09:00;;;;;;;44.85;27.55;;;;;;;5.83;68.53;94368.63;4189358;28;20486;-70
2023/11/21 04:11:02;;;;;;;40.38;26.30;;;;;;;5.82;68.46;94370.41;4193865;28;20052;-69
2023/11/21 04:13:05;;;;;;;40.47;26.45;;;;;;;5.87;68.47;94370.84;4197708;28;20386;-68
2023/11/21 04:15:08;;;;;;;39.20;26.38;;;;;;;5.86;68.09;94368.38;4199011;28;20084;-70
2023/11/21 04:17:10;;;;;;;38.63;26.45;;;;;;;5.85;68.22;94371.91;4196013;28;20051;-67
2023/11/21 04:19:15;;;;;;;37.80;24.77;;;;;;;5.83;68.69;94366.03;4178677;28;20075;-69
2023/11/21 04:21:17;;;;;;;40.42;25.33;;;;;;;5.83;68.16;94366.88;4179881;28;20110;-67
2023/11/21 04:23:19;;;;;;;40.15;27.75;;;;;;;5.87;68.00;94370.00;4179197;28;20119;-67
2023/11/21 04:25:23;;;;;;;42.65;27.80;;;;;;;5.67;68.52;94369.19;4195918;28;20052;-70
2023/11/21 04:27:24;;;;;;;39.50;26.80;;;;;;;5.57;69.12;94370.97;4192541;28;20498;-68
2023/11/21 04:29:26;;;;;;;36.47;27.02;;;;;;;5.54;69.04;94369.47;4186335;28;20374;-69
2023/11/21 04:31:28;;;;;;;38.67;27.17;;;;;;;5.59;68.92;94379.44;4179581;28;20542;-70
2023/11/21 04:33:31;;;;;;;48.60;27.13;;;;;;;5.56;69.67;94375.34;4193601;28;20146;-69
2023/11/21 04:35:33;;;;;;;40.17;27.65;;;;;;;5.64;69.50;94374.69;4190371;28;20059;-69
2023/11/21 04:37:34;;;;;;;39.05;26.92;;;;;;;5.65;69.62;94371.94;4171112;28;20511;-68
2023/11/21 04:39:36;;;;;;;43.50;26.38;;;;;;;5.70;68.92;94371.50;4196354;28;20052;-68
2023/11/21 04:41:41;;;;;;;35.75;24.65;;;;;;;5.73;69.00;94369.47;4189444;28;20530;-68
2023/11/21 04:43:43;;;;;;;36.60;26.50;;;;;;;5.74;68.28;94376.31;4192482;28;20044;-68
2023/11/21 04:45:45;;;;;;;36.85;26.77;;;;;;;5.75;68.53;94372.75;4193417;28;20127;-68
2023/11/21 04:47:47;;;;;;;33.40;21.95;;;;;;;5.64;68.37;94382.47;4196064;28;20044;-71
2023/11/21 04:49:49;;;;;;;33.75;21.48;;;;;;;5.61;68.79;94387.94;4196345;28;20075;-69
2023/11/21 04:51:51;;;;;;;31.52;22.08;;;;;;;5.63;68.72;94388.63;4194687;28;20048;-70
2023/11/21 04:53:52;;;;;;;37.85;23.15;;;;;;;5.68;69.03;94382.06;4177509;28;20049;-69
2023/11/21 04:55:54;;;;;;;33.58;22.63;;;;;;;5.72;69.34;94385.19;4196555;28;20136;-71
2023/11/21 04:57:56;;;;;;;31.75;20.90;;;;;;;5.73;68.87;94379.06;4178886;28;20515;-72
2023/11/21 04:59:58;;;;;;;31.00;21.33;;;;;;;5.76;68.08;94373.56;4193572;28;20044;-70
2023/11/21 05:02:02;;;;;;;34.53;22.67;;;;;;;5.73;68.45;94376.44;4194178;28;20140;-71
2023/11/21 05:04:05;;;;;;;36.17;23.88;;;;;;;5.70;68.11;94379.31;4194391;28;20045;-68
2023/11/21 05:06:11;;;;;;;36.08;24.25;;;;;;;5.40;68.27;94398.44;4179446;28;20129;-73
2023/11/21 05:08:13;;;;;;;34.88;23.13;;;;;;;5.13;69.87;94399.91;4190807;28;20502;-70
2023/11/21 05:10:15;;;;;;;36.40;24.85;;;;;;;5.05;70.96;94384.16;4191437;28;20045;-72
2023/11/21 05:12:17;;;;;;;42.47;24.52;;;;;;;5.09;70.84;94372.56;4174231;28;20056;-72
2023/11/21 05:14:19;;;;;;;38.67;24.48;;;;;;;5.24;70.38;94373.81;4178320;28;20442;-71
2023/11/21 05:16:21;;;;;;;40.03;24.77;;;;;;;5.30;70.01;94380.25;4196424;28;20378;-74
2023/11/21 05:18:23;;;;;;;41.40;25.83;;;;;;;5.36;69.98;94373.72;4196086;28;20106;-71
2023/11/21 05:20:27;;;;;;;36.42;23.50;;;;;;;5.37;69.41;94376.16;4170530;28;20295;-69
2023/11/21 05:22:30;;;;;;;39.83;24.48;;;;;;;5.42;69.10;94378.34;4193334;28;20648;-71
2023/11/21 05:24:31;;;;;;;39.88;24.27;;;;;;;5.46;69.27;94371.91;4183952;28;20048;-69
2023/11/21 05:26:33;;;;;;;37.63;23.75;;;;;;;5.54;69.26;94365.09;4190344;28;20049;-70
2023/11/21 05:28:36;;;;;;;39.17;25.38;;;;;;;5.61;69.02;94380.13;4195250;28;20048;-71
2023/11/21 05:30:39;;;;;;;36.13;24.63;;;;;;;5.65;69.03;94382.31;4195878;28;20044;-71
2023/11/21 05:32:43;;;;;;;41.58;26.08;;;;;;;5.39;68.62;94384.63;4190133;28;20289;-71
2023/11/21 05:34:45;;;;;;;37.75;25.60;;;;;;;5.26;69.41;94390.09;4174721;28;20049;-73
2023/11/21 05:36:47;;;;;;;42.88;27.63;;;;;;;5.06;70.44;94396.22;4180966;28;20538;-71
2023/11/21 05:38:49;;;;;;;37.90;26.73;;;;;;;4.78;70.54;94395.97;4182133;28;20084;-71
2023/11/21 05:40:51;;;;;;;49.97;27.60;;;;;;;4.65;72.15;94395.41;4181523;28;20133;-72
2023/11/21 05:42:52;;;;;;;45.65;27.90;;;;;;;4.56;71.74;94397.00;4161477;28;20052;-72
2023/11/21 05:44:54;;;;;;;46.08;28.63;;;;;;;4.58;72.13;94397.69;4175081;28;20049;-71
2023/11/21 05:46:58;;;;;;;46.30;27.27;;;;;;;4.57;72.59;94396.03;4190631;28;20044;-72
2023/11/21 05:49:00;;;;;;;38.30;26.38;;;;;;;4.72;72.98;94401.69;4181164;28;20044;-70
2023/11/21 05:51:06;;;;;;;45.80;27.38;;;;;;;4.89;72.12;94388.09;4181672;28;20075;-71
2023/11/21 05:53:10;;;;;;;44.13;27.70;;;;;;;5.11;71.40;94383.63;4181415;28;20103;-72
2023/11/21 05:55:12;;;;;;;42.22;26.02;;;;;;;5.25;71.30;94383.25;4195089;28;20057;-73
2023/11/21 05:57:15;;;;;;;39.08;25.70;;;;;;;5.40;70.93;94377.66;4190419;28;20079;-71
2023/11/21 05:59:16;;;;;;;48.70;26.85;;;;;;;5.42;69.86;94384.38;4183414;28;20052;-70
2023/11/21 06:01:23;;;;;;;51.80;28.65;;;;;;;5.34;69.98;94390.25;4174996;28;20117;-71
2023/11/21 06:03:25;;;;;;;45.38;26.73;;;;;;;5.39;70.62;94389.00;4201616;28;20079;-70
2023/11/21 06:05:27;;;;;;;41.35;26.55;;;;;;;5.46;69.90;94384.91;4123382;28;1837530;-71
2023/11/21 06:07:30;;;;;;;40.67;27.60;;;;;;;5.51;70.07;94388.75;4175819;28;20149;-72
2023/11/21 06:09:35;;;;;;;36.38;24.08;;;;;;;5.53;70.27;94381.66;4190533;28;20132;-73
2023/11/21 06:11:37;;;;;;;37.22;23.23;;;;;;;5.60;69.91;94389.72;4178211;28;20096;-71
2023/11/21 06:13:39;;;;;;;29.52;22.45;;;;;;;5.60;69.09;94389.72;4196150;28;20619;-70
2023/11/21 06:15:40;;;;;;;35.45;23.80;;;;;;;5.27;69.86;94393.50;4194917;28;20478;-74
2023/11/21 06:17:44;;;;;;;41.00;23.92;;;;;;;5.31;69.95;94410.47;4196639;28;20127;-70
2023/11/21 06:19:46;;;;;;;32.15;21.98;;;;;;;5.29;70.11;94397.63;4178702;28;20049;-71
2023/11/21 06:21:48;;;;;;;31.80;22.77;;;;;;;5.23;70.02;94400.75;4192588;28;20057;-71
2023/11/21 06:23:50;;;;;;;37.70;22.60;;;;;;;5.29;70.27;94401.97;4194849;28;20087;-70
2023/11/21 06:25:54;;;;;;;45.33;24.10;;;;;;;5.40;70.31;94408.81;4190059;28;20077;-71
2023/11/21 06:27:56;;;;;;;35.85;21.65;;;;;;;5.57;70.23;94408.19;4178549;28;20053;-70
2023/11/21 06:29:58;;;;;;;50.33;24.17;;;;;;;5.71;69.92;94402.56;4192191;28;20052;-71
2023/11/21 06:32:00;;;;;;;31.88;23.42;;;;;;;5.77;68.80;94400.41;4182230;28;20052;-72
2023/11/21 06:34:03;;;;;;;39.65;23.90;;;;;;;5.77;68.45;94403.81;4190394;28;20376;-71
2023/11/21 06:36:06;;;;;;;35.83;23.50;;;;;;;5.74;68.68;94409.28;4189703;28;20048;-72
2023/11/21 06:38:09;;;;;;;40.95;25.80;;;;;;;5.60;68.56;94409.69;4182762;28;20236;-71
2023/11/21 06:40:14;;;;;;;49.95;31.30;;;;;;;5.05;69.69;94426.53;4183644;28;20458;-71
2023/11/21 06:42:16;;;;;;;54.45;38.08;;;;;;;4.76;71.10;94430.81;4188411;28;20040;-71
2023/11/21 06:44:19;;;;;;;51.25;37.05;;;;;;;4.69;71.24;94433.91;4191971;28;20095;-71
2023/11/21 06:46:21;;;;;;;48.42;33.13;;;;;;;4.50;72.21;94431.22;4183784;28;20045;-69
2023/11/21 06:48:23;;;;;;;51.28;35.45;;;;;;;4.45;71.73;94428.19;4180351;28;20091;-70
2023/11/21 06:50:25;;;;;;;60.90;38.63;;;;;;;4.21;72.78;94436.25;4195103;28;20044;-72
2023/11/21 06:52:27;;;;;;;61.50;36.58;;;;;;;4.28;73.41;94429.59;4196233;28;20514;-70
2023/11/21 06:54:31;;;;;;;54.60;36.92;;;;;;;4.28;73.13;94429.59;4195442;28;20075;-72
2023/11/21 06:56:33;;;;;;;;;;;;;;;4.43;72.91;94430.94;4194528;28;20052;-71
2023/11/21 06:58:34;;;;;;;57.63;37.42;;;;;;;4.57;72.92;94426.34;4179304;28;19921;-70
2023/11/21 07:00:36;;;;;;;66.88;40.22;;;;;;;4.87;72.53;94434.13;4193682;28;20049;-71
2023/11/21 07:02:38;;;;;;;61.17;37.63;;;;;;;5.18;71.82;94430.66;4195985;28;20132;-73
2023/11/21 07:04:41;;;;;;;57.22;36.50;;;;;;;5.40;70.09;94424.41;4198468;28;20127;-72
2023/11/21 07:06:43;;;;;;;54.08;38.13;;;;;;;5.54;69.20;94424.84;4194637;28;20075;-72
2023/11/21 07:08:45;;;;;;;58.70;37.78;;;;;;;5.60;68.83;94418.31;4198880;28;20056;-72
2023/11/21 07:10:47;;;;;;;54.97;35.97;;;;;;;5.71;68.62;94423.38;4188818;28;20049;-74
2023/11/21 07:12:49;;;;;;;52.33;33.60;;;;;;;5.74;68.69;94415.31;4197425;28;20049;-71
2023/11/21 07:14:51;;;;;;;54.83;33.22;;;;;;;5.88;68.57;94413.25;4191920;28;20131;-71
2023/11/21 07:16:53;;;;;;;51.65;34.03;;;;;;;6.06;68.29;94408.19;4192987;28;20048;-70
2023/11/21 07:18:55;;;;;;;51.97;32.80;;;;;;;6.24;67.72;94405.69;4197077;28;20406;-72
2023/11/21 07:20:58;;;;;;;49.53;34.10;;;;;;;6.34;67.07;94409.91;4198859;28;20101;-71
2023/11/21 07:23:00;;;;;;;53.63;32.97;;;;;;;6.45;66.54;94408.94;4198305;28;20094;-72
2023/11/21 07:25:03;;;;;;;50.60;33.25;;;;;;;6.54;66.58;94418.53;4181155;28;20044;-70
2023/11/21 07:27:04;;;;;;;46.65;32.38;;;;;;;6.62;66.12;94412.59;4194732;28;20060;-71
2023/11/21 07:29:08;;;;;;;51.25;32.20;;;;;;;6.66;66.36;94419.16;4188500;28;20447;-72
2023/11/21 07:31:10;;;;;;;56.53;33.17;;;;;;;6.65;66.17;94417.53;4199287;28;20048;-72
2023/11/21 07:33:12;;;;;;;48.15;32.53;;;;;;;6.71;66.28;94421.31;4198846;28;20110;-69
2023/11/21 07:35:14;;;;;;;58.17;31.30;;;;;;;6.76;66.20;94419.13;4197982;28;20163;-70
2023/11/21 07:37:15;;;;;;;52.55;32.03;;;;;;;6.85;65.60;94418.28;4194337;28;20055;-70
2023/11/21 07:39:17;;;;;;;50.97;31.92;;;;;;;6.91;65.67;94411.69;4191917;28;20059;-69
2023/11/21 07:41:19;;;;;;;55.05;33.00;;;;;;;6.93;65.36;94415.78;4195729;28;20063;-69
2023/11/21 07:43:34;;;;;;;48.60;30.90;;;;;;;7.00;65.10;94417.81;4194776;28;20048;-70
2023/11/21 07:45:36;;;;;;;53.20;30.10;;;;;;;7.06;65.19;94414.63;4199639;28;20072;-69
2023/11/21 07:47:39;;;;;;;44.25;30.30;;;;;;;7.06;64.52;94415.44;4195024;28;20556;-70
2023/11/21 07:49:43;;;;;;;47.53;30.90;;;;;;;7.11;65.03;94404.59;4196668;28;20098;-70
2023/11/21 07:51:45;;;;;;;45.58;29.30;;;;;;;7.14;64.68;94401.69;4190795;28;20619;-69
2023/11/21 07:53:47;;;;;;;43.33;28.17;;;;;;;7.23;64.23;94397.38;4180775;28;20047;-69
2023/11/21 07:55:49;;;;;;;39.13;27.95;;;;;;;7.32;64.46;94405.16;4198699;28;20059;-70
2023/11/21 07:57:51;;;;;;;49.67;29.63;;;;;;;7.40;64.12;94399.22;4189303;28;20048;-68
2023/11/21 07:59:55;;;;;;;44.63;30.60;;;;;;;7.43;64.11;94401.53;4192807;28;20049;-71
2023/11/21 08:01:56;;;;;;;48.10;30.13;;;;;;;7.40;64.90;94396.63;4185514;28;20076;-72
2023/11/21 08:04:01;;;;;;;46.45;29.13;;;;;;;7.33;64.33;94395.53;4184420;28;20507;-71
2023/11/21 08:06:05;;;;;;;47.47;28.23;;;;;;;7.07;64.25;94393.63;4195715;28;20052;-70
2023/11/21 08:08:07;;;;;;;44.45;28.45;;;;;;;6.97;65.16;94398.09;4192350;28;20101;-70
2023/11/21 08:10:10;;;;;;;40.80;28.23;;;;;;;7.03;65.43;94394.06;4190994;28;20080;-70
2023/11/21 08:12:12;;;;;;;43.83;28.83;;;;;;;6.93;64.58;94394.13;4192121;28;20131;-71
2023/11/21 08:14:15;;;;;;;39.75;24.60;;;;;;;6.91;65.56;94396.88;4197298;28;20053;-70
2023/11/21 08:16:16;;;;;;;45.33;27.92;;;;;;;7.10;65.37;94398.56;4192459;28;20045;-72
2023/11/21 08:18:18;;;;;;;48.22;28.02;;;;;;;7.32;64.90;94388.72;4191383;28;20044;-70
2023/11/21 08:20:22;;;;;;;153.02;34.33;;;;;;;7.49;64.34;94397.53;4197650;28;20498;-70
2023/11/21 08:22:24;;;;;;;65.07;30.48;;;;;;;7.58;63.84;94389.63;4197846;28;20064;-70
2023/11/21 08:24:27;;;;;;;55.78;29.25;;;;;;;7.54;63.59;94380.44;4198032;28;20056;-70
2023/11/21 08:26:29;;;;;;;45.70;29.73;;;;;;;7.63;63.98;94390.97;4186373;28;20490;-70
2023/11/21 08:28:31;;;;;;;45.58;29.58;;;;;;;7.76;63.24;94391.41;4194891;28;20090;-69
2023/11/21 08:30:34;;;;;;;42.95;28.25;;;;;;;7.89;63.35;94386.63;4186190;28;20045;-70
2023/11/21 08:32:36;;;;;;;48.72;28.83;;;;;;;8.00;63.16;94389.03;4193039;28;20053;-71
2023/11/21 08:34:39;;;;;;;51.63;28.67;;;;;;;8.03;62.00;94387.09;4185183;28;20068;-71
2023/11/21 08:36:43;;;;;;;42.78;24.85;;;;;;;8.05;62.44;94385.97;4184174;28;20509;-69
2023/11/21 08:38:44;;;;;;;47.53;25.55;;;;;;;8.14;62.53;94390.25;4194847;28;20045;-70
2023/11/21 08:40:48;;;;;;;37.47;25.13;;;;;;;8.15;62.02;94386.69;4172619;28;20059;-69
2023/11/21 08:42:51;;;;;;;50.47;27.02;;;;;;;8.20;61.64;94383.63;4197073;28;20522;-71
2023/11/21 08:44:53;;;;;;;97.75;33.22;;;;;;;8.11;62.05;94387.13;4195579;28;20048;-69
2023/11/21 08:46:55;;;;;;;58.08;27.65;;;;;;;8.03;62.15;94381.88;4178397;28;20052;-70
2023/11/21 08:48:57;;;;;;;39.05;22.15;;;;;;;7.68;62.61;94380.91;4197762;28;20514;-72
2023/11/21 08:50:59;;;;;;;47.25;21.30;;;;;;;7.60;63.77;94384.28;4196799;28;20048;-69
2023/11/21 08:53:01;;;;;;;238.32;35.67;;;;;;;7.74;63.37;94375.09;4197932;28;20398;-72
2023/11/21 08:55:07;;;;;;;96.40;30.25;;;;;;;7.83;63.50;94376.81;4196258;28;20084;-71
2023/11/21 08:57:09;;;;;;;34.33;19.33;;;;;;;7.98;63.03;94374.50;4178883;28;20057;-70
2023/11/21 08:59:14;;;;;;;28.15;17.90;;;;;;;8.11;62.33;94364.50;4197155;28;20098;-70
2023/11/21 09:01:17;;;;;;;53.90;28.13;;;;;;;8.07;61.87;94364.94;4171131;28;20131;-72
2023/11/21 09:03:19;;;;;;;55.25;24.08;;;;;;;8.09;62.64;94355.19;4179513;28;20515;-72
2023/11/21 09:05:21;;;;;;;33.60;20.27;;;;;;;8.06;62.00;94351.06;4192724;28;20127;-69
2023/11/21 09:07:23;;;;;;;43.95;26.20;;;;;;;8.07;62.54;94339.66;4179105;28;20058;-72
2023/11/21 09:09:25;;;;;;;41.33;26.10;;;;;;;8.07;62.37;94334.44;4194484;28;20044;-71
2023/11/21 09:11:33;;;;;;;42.53;24.90;;;;;;;8.16;62.44;94328.31;4191164;28;20128;-70
2023/11/21 09:13:35;;;;;;;41.00;22.88;;;;;;;8.32;62.46;94324.97;4184739;28;20135;-70
2023/11/21 09:15:36;;;;;;;46.75;23.50;;;;;;;8.38;62.78;94324.34;4148706;28;20432;-71
2023/11/21 09:17:40;;;;;;;46.15;22.40;;;;;;;8.39;62.51;94322.59;4184842;28;20071;-70
2023/11/21 09:19:45;;;;;;;34.38;21.83;;;;;;;8.34;62.38;94322.22;4190207;28;20187;-72
2023/11/21 09:21:47;;;;;;;30.90;18.88;;;;;;;8.41;62.33;94312.84;4177200;28;20049;-73
2023/11/21 09:23:48;;;;;;;27.25;18.00;;;;;;;8.49;61.60;94307.63;4196269;28;20123;-72
2023/11/21 09:25:51;;;;;;;25.80;17.95;;;;;;;8.65;61.36;94303.47;4197042;28;20418;-71
2023/11/21 09:27:53;;;;;;;25.47;17.13;;;;;;;8.74;60.89;94292.09;4187536;28;20088;-70
2023/11/21 09:29:55;;;;;;;25.80;16.80;;;;;;;8.75;61.15;94293.72;4193218;28;20743;-71
2023/11/21 09:31:59;;;;;;;25.30;16.83;;;;;;;8.90;61.09;94286.91;4183180;28;20052;-70